createdAt,value
2023-05-08T00:00:06.660Z,6.30
2023-05-08T00:05:29.167Z,7.60
2023-05-08T00:10:51.352Z,4.97
2023-05-08T00:16:13.812Z,5.87
2023-05-08T00:21:36.143Z,8.33
2023-05-08T00:26:58.565Z,7.33
2023-05-08T00:32:21.211Z,4.93
2023-05-08T00:37:43.947Z,6.07
2023-05-08T00:43:07.163Z,6.10
2023-05-08T00:48:32.461Z,15.00
2023-05-08T00:53:54.973Z,5.87
2023-05-08T00:59:20.344Z,5.83
2023-05-08T01:04:44.631Z,6.27
2023-05-08T01:10:07.382Z,8.13
2023-05-08T01:15:36.435Z,5.83
2023-05-08T01:21:27.576Z,6.67
2023-05-08T01:27:17.306Z,5.47
2023-05-08T01:32:43.069Z,6.40
2023-05-08T01:38:34.198Z,5.83
2023-05-08T01:44:18.210Z,8.30
2023-05-08T01:49:42.336Z,6.63
2023-05-08T01:55:11.383Z,7.27
2023-05-08T02:00:34.200Z,6.43
2023-05-08T02:05:59.285Z,8.53
2023-05-08T02:11:24.807Z,5.13
2023-05-08T02:16:48.867Z,8.10
2023-05-08T02:22:12.654Z,9.00
2023-05-08T02:27:36.719Z,5.43
2023-05-08T02:33:01.410Z,5.77
2023-05-08T02:38:26.352Z,8.50
2023-05-08T02:43:50.198Z,8.50
2023-05-08T02:49:38.584Z,7.33
2023-05-08T02:55:11.192Z,6.97
2023-05-08T03:00:47.440Z,7.80
2023-05-08T03:06:18.516Z,7.27
2023-05-08T03:11:43.771Z,7.93
2023-05-08T03:17:09.186Z,6.37
2023-05-08T03:22:35.140Z,11.30
2023-05-08T03:27:59.347Z,7.03
2023-05-08T03:33:23.432Z,9.23
2023-05-08T03:38:46.723Z,7.93
2023-05-08T03:44:09.550Z,9.90
2023-05-08T03:49:33.457Z,9.63
2023-05-08T03:54:56.318Z,9.17
2023-05-08T04:00:51.737Z,8.03
2023-05-08T04:06:22.986Z,10.27
2023-05-08T04:12:12.969Z,9.87
2023-05-08T04:17:42.642Z,9.50
2023-05-08T04:23:08.077Z,7.87
2023-05-08T04:28:31.470Z,9.60
2023-05-08T04:33:55.655Z,8.30
2023-05-08T04:39:18.366Z,7.03
2023-05-08T04:44:40.846Z,8.20
2023-05-08T04:50:06.871Z,10.60
2023-05-08T04:55:30.779Z,8.90
2023-05-08T05:00:53.453Z,8.07
2023-05-08T05:06:16.999Z,9.77
2023-05-08T05:11:40.758Z,10.63
2023-05-08T05:17:03.197Z,8.13
2023-05-08T05:22:25.687Z,11.17
2023-05-08T05:27:48.556Z,9.67
2023-05-08T05:33:11.142Z,9.80
2023-05-08T05:38:33.707Z,7.33
2023-05-08T05:43:56.298Z,8.50
2023-05-08T05:49:18.923Z,6.90
2023-05-08T05:54:44.097Z,7.40
2023-05-08T06:00:08.508Z,8.73
2023-05-08T06:05:37.035Z,9.03
2023-05-08T06:10:59.675Z,8.40
2023-05-08T06:16:23.462Z,8.03
2023-05-08T06:21:46.397Z,8.57
2023-05-08T06:27:08.612Z,6.07
2023-05-08T06:32:31.147Z,6.83
2023-05-08T06:37:53.503Z,6.00
2023-05-08T06:43:16.084Z,6.77
2023-05-08T06:48:39.917Z,9.80
2023-05-08T06:54:02.453Z,7.73
2023-05-08T06:59:24.713Z,6.87
2023-05-08T07:04:47.436Z,5.80
2023-05-08T07:10:10.815Z,5.03
2023-05-08T07:15:33.299Z,3.33
2023-05-08T07:20:55.911Z,4.00
2023-05-08T07:26:18.660Z,5.90
2023-05-08T07:31:41.809Z,4.40
2023-05-08T07:37:04.557Z,4.70
2023-05-08T07:42:26.806Z,2.80
2023-05-08T07:47:50.505Z,4.07
2023-05-08T07:53:12.978Z,6.70
2023-05-08T07:58:35.226Z,4.17
2023-05-08T08:03:57.835Z,5.50
2023-05-08T08:09:20.102Z,3.13
2023-05-08T08:14:42.580Z,3.07
2023-05-08T08:20:05.554Z,2.93
2023-05-08T08:25:28.487Z,5.77
2023-05-08T08:30:51.253Z,4.33
2023-05-08T08:36:14.979Z,4.30
2023-05-08T08:41:41.046Z,3.97
2023-05-08T08:47:05.579Z,2.97
2023-05-08T08:52:48.160Z,4.13
2023-05-08T08:58:36.521Z,3.00
2023-05-08T09:04:01.253Z,3.10
2023-05-08T09:09:24.854Z,6.10
2023-05-08T09:14:47.280Z,4.07
2023-05-08T09:20:10.199Z,2.80
2023-05-08T09:25:46.428Z,2.77
2023-05-08T09:31:08.813Z,2.93
2023-05-08T09:36:32.145Z,2.57
2023-05-08T09:42:01.648Z,5.23
2023-05-08T09:47:25.333Z,3.43
2023-05-08T09:52:49.206Z,5.67
2023-05-08T09:58:11.903Z,2.85
2023-05-08T10:03:50.703Z,2.13
2023-05-08T10:09:14.687Z,2.50
2023-05-08T10:14:37.349Z,2.28
2023-05-08T10:20:06.255Z,2.47
2023-05-08T10:25:33.968Z,2.53
2023-05-08T10:31:01.611Z,3.88
2023-05-08T10:36:24.402Z,3.67
2023-05-08T10:41:49.559Z,2.00
2023-05-08T10:47:15.046Z,2.40
2023-05-08T10:52:53.090Z,4.43
2023-05-08T10:58:29.641Z,2.58
2023-05-08T11:03:52.762Z,2.30
2023-05-08T11:09:22.125Z,3.58
2023-05-08T11:14:53.400Z,2.40
2023-05-08T11:20:16.094Z,5.05
2023-05-08T11:25:46.070Z,3.83
2023-05-08T11:31:08.958Z,3.15
2023-05-08T11:36:32.211Z,3.55
2023-05-08T11:41:54.641Z,2.20
2023-05-08T11:47:18.891Z,2.40
2023-05-08T11:52:43.433Z,4.43
2023-05-08T11:58:16.155Z,2.25
2023-05-08T12:03:38.666Z,4.03
2023-05-08T12:09:04.830Z,2.13
2023-05-08T12:14:27.393Z,3.92
2023-05-08T12:19:55.185Z,2.38
2023-05-08T12:25:23.077Z,4.68
2023-05-08T12:30:46.186Z,2.70
2023-05-08T12:36:08.847Z,2.97
2023-05-08T12:41:34.705Z,3.88
2023-05-08T12:46:57.931Z,4.28
2023-05-08T12:52:20.492Z,2.38
2023-05-08T12:57:42.670Z,3.80
2023-05-08T13:03:06.535Z,1.90
2023-05-08T13:08:31.768Z,2.47
2023-05-08T13:13:53.988Z,4.95
2023-05-08T13:19:16.691Z,5.05
2023-05-08T13:24:39.074Z,6.07
2023-05-08T13:30:01.156Z,6.00
2023-05-08T13:35:25.801Z,2.00
2023-05-08T13:40:48.138Z,5.65
2023-05-08T13:46:11.590Z,2.88
2023-05-08T13:51:34.280Z,5.50
2023-05-08T13:56:56.704Z,3.20
2023-05-08T14:02:19.871Z,3.45
2023-05-08T14:07:42.557Z,2.05
2023-05-08T14:13:05.322Z,2.95
2023-05-08T14:18:28.026Z,5.93
2023-05-08T14:23:50.784Z,2.00
2023-05-08T14:29:13.732Z,4.93
2023-05-08T14:34:36.394Z,2.78
2023-05-08T14:39:59.471Z,3.28
2023-05-08T14:45:23.700Z,3.22
2023-05-08T14:50:46.344Z,2.40
2023-05-08T14:56:08.667Z,3.58
2023-05-08T15:01:31.695Z,2.35
2023-05-08T15:06:54.210Z,2.75
2023-05-08T15:12:16.559Z,2.88
2023-05-08T15:17:41.572Z,3.03
2023-05-08T15:23:03.862Z,5.47
2023-05-08T15:28:26.293Z,2.40
2023-05-08T15:33:48.788Z,3.13
2023-05-08T15:39:11.314Z,3.13
2023-05-08T15:44:52.719Z,6.43
2023-05-08T15:50:16.162Z,2.60
2023-05-08T15:55:40.496Z,2.38
2023-05-08T16:01:04.959Z,3.15
2023-05-08T16:06:27.343Z,4.40
2023-05-08T16:11:49.629Z,4.53
2023-05-08T16:17:11.828Z,2.28
2023-05-08T16:22:34.631Z,5.78
2023-05-08T16:27:57.232Z,2.40
2023-05-08T16:33:19.714Z,7.70
2023-05-08T16:38:42.052Z,5.22
2023-05-08T16:44:04.752Z,3.50
2023-05-08T16:49:27.114Z,3.20
2023-05-08T16:54:49.435Z,4.93
2023-05-08T17:00:12.193Z,2.80
2023-05-08T17:05:35.687Z,5.32
2023-05-08T17:11:00.592Z,2.97
2023-05-08T17:16:23.228Z,3.65
2023-05-08T17:21:45.478Z,2.55
2023-05-08T17:27:08.683Z,1.98
2023-05-08T17:32:31.396Z,2.85
2023-05-08T17:37:53.708Z,5.55
2023-05-08T17:43:17.691Z,3.60
2023-05-08T17:48:41.101Z,3.28
2023-05-08T17:54:03.723Z,2.20
2023-05-08T17:59:26.320Z,4.22
2023-05-08T18:04:48.846Z,3.95
2023-05-08T18:10:11.476Z,5.15
2023-05-08T18:15:36.292Z,2.78
2023-05-08T18:20:58.647Z,4.60
2023-05-08T18:26:21.687Z,3.13
2023-05-08T18:31:43.961Z,2.47
2023-05-08T18:37:06.553Z,2.83
2023-05-08T18:42:28.769Z,5.50
2023-05-08T18:47:52.504Z,2.60
2023-05-08T18:53:15.092Z,2.77
2023-05-08T18:58:37.546Z,2.50
2023-05-08T19:04:00.717Z,5.00
2023-05-08T19:09:23.350Z,3.03
2023-05-08T19:14:45.992Z,3.80
2023-05-08T19:20:08.811Z,2.93
2023-05-08T19:25:31.438Z,3.37
2023-05-08T19:30:54.025Z,7.03
2023-05-08T19:36:16.565Z,4.87
2023-05-08T19:41:38.853Z,4.77
2023-05-08T19:47:03.699Z,4.07
2023-05-08T19:52:26.486Z,3.60
2023-05-08T19:57:48.843Z,4.37
2023-05-08T20:03:11.350Z,2.80
2023-05-08T20:08:33.607Z,3.37
2023-05-08T20:13:56.184Z,2.80
2023-05-08T20:19:18.687Z,3.50
2023-05-08T20:24:41.306Z,4.00
2023-05-08T20:30:03.974Z,3.37
2023-05-08T20:35:26.439Z,3.63
2023-05-08T20:40:48.956Z,2.77
2023-05-08T20:46:11.426Z,3.50
2023-05-08T20:51:34.110Z,5.70
2023-05-08T20:56:56.623Z,4.27
2023-05-08T21:02:19.025Z,6.73
2023-05-08T21:07:42.484Z,3.57
2023-05-08T21:13:05.565Z,3.97
2023-05-08T21:18:27.862Z,3.40
2023-05-08T21:23:50.380Z,4.83
2023-05-08T21:29:12.510Z,4.13
2023-05-08T21:34:34.688Z,5.20
2023-05-08T21:39:56.939Z,4.67
2023-05-08T21:45:19.538Z,9.77
2023-05-08T21:50:42.034Z,7.97
2023-05-08T21:56:04.889Z,3.90
2023-05-08T22:01:27.227Z,3.50
2023-05-08T22:06:49.582Z,7.20
2023-05-08T22:12:12.150Z,5.83
2023-05-08T22:17:34.456Z,4.80
2023-05-08T22:22:57.049Z,4.27
2023-05-08T22:28:19.434Z,4.47
2023-05-08T22:33:41.860Z,6.47
2023-05-08T22:39:06.812Z,4.20
2023-05-08T22:44:29.170Z,3.83
2023-05-08T22:49:51.658Z,6.17
2023-05-08T22:55:15.752Z,5.20
2023-05-08T23:00:38.536Z,6.60
2023-05-08T23:06:00.942Z,8.13
2023-05-08T23:11:24.828Z,5.17
2023-05-08T23:16:47.329Z,5.57
2023-05-08T23:22:10.187Z,12.10
2023-05-08T23:27:32.793Z,4.97
2023-05-08T23:32:55.370Z,5.30
2023-05-08T23:38:17.584Z,5.23
2023-05-08T23:43:40.138Z,6.87
2023-05-08T23:49:05.475Z,7.40
2023-05-08T23:54:27.804Z,4.37
2023-05-08T23:59:50.044Z,7.13
